Time;durP1;ratioP1;P1;durP2;ratioP2;P2;SDS_P1;SDS_P2;PMS_P1;PMS_P2;Temp;Humidity;BMP_temperature;BMP_pressure;BME280_temperature;BME280_humidity;BME280_pressure;Samples;Min_cycle;Max_cycle;Signal;HPM_P1;HPM_P2
2023/07/09 00:01:44;;;;;;;6.55;3.65;;;;;;;23.30;87.48;100294.94;5091458;28;20503;-67
2023/07/09 00:04:13;;;;;;;6.07;3.35;;;;;;;23.22;87.66;100286.50;5091156;28;20031;-66
2023/07/09 00:06:40;;;;;;;6.15;3.25;;;;;;;23.16;88.36;100303.28;5091282;28;20074;-67
2023/07/09 00:09:06;;;;;;;6.72;3.47;;;;;;;23.09;89.14;100304.78;5092753;28;20546;-67
2023/07/09 00:11:32;;;;;;;7.57;3.33;;;;;;;23.06;89.12;100301.44;5091401;28;20388;-67
2023/07/09 00:13:57;;;;;;;7.00;3.60;;;;;;;23.01;89.49;100307.22;5092699;28;20063;-67
2023/07/09 00:16:26;;;;;;;7.78;3.45;;;;;;;22.98;90.02;100303.88;5091773;28;20036;-67
2023/07/09 00:18:51;;;;;;;5.75;3.22;;;;;;;22.95;90.43;100294.13;5062148;28;20056;-66
2023/07/09 00:21:20;;;;;;;6.38;3.75;;;;;;;22.92;90.67;100294.38;5074668;28;20048;-66
2023/07/09 00:23:48;;;;;;;7.82;3.25;;;;;;;22.93;90.89;100296.09;5072151;28;20069;-67
2023/07/09 00:26:15;;;;;;;9.45;3.72;;;;;;;22.89;90.59;100294.63;5090274;28;20081;-66
2023/07/09 00:28:42;;;;;;;7.05;3.83;;;;;;;22.86;90.85;100292.16;5092291;28;20035;-67
2023/07/09 00:31:16;;;;;;;9.93;3.78;;;;;;;22.89;90.94;100296.47;5091496;28;20024;-67
2023/07/09 00:33:43;;;;;;;8.27;3.50;;;;;;;22.84;91.14;100299.53;5091724;28;20028;-67
2023/07/09 00:36:16;;;;;;;9.05;3.83;;;;;;;22.81;91.68;100302.50;5091305;28;20058;-67
2023/07/09 00:38:47;;;;;;;;;;;;;;;22.79;91.74;100304.47;5090579;28;20032;-67
2023/07/09 00:41:17;;;;;;;5.43;3.30;;;;;;;22.73;91.97;100306.78;5087029;28;19908;-67
2023/07/09 00:43:45;;;;;;;9.25;3.58;;;;;;;22.67;92.48;100310.00;5090466;28;20034;-67
2023/07/09 00:46:19;;;;;;;7.10;3.83;;;;;;;22.61;93.21;100310.44;5090417;28;20608;-67
2023/07/09 00:48:51;;;;;;;7.20;3.40;;;;;;;22.57;93.85;100315.22;5088407;28;20024;-67
2023/07/09 00:51:21;;;;;;;7.50;3.80;;;;;;;22.56;93.37;100308.09;5089724;28;20032;-67
2023/07/09 00:53:51;;;;;;;6.47;3.83;;;;;;;22.57;93.35;100314.38;5090115;28;20035;-67
2023/07/09 00:56:28;;;;;;;7.05;3.45;;;;;;;22.55;93.08;100311.81;5088868;28;20035;-67
2023/07/09 00:58:55;;;;;;;7.43;3.95;;;;;;;22.59;92.55;100318.69;5090478;28;20429;-67
2023/07/09 01:01:20;;;;;;;7.88;3.42;;;;;;;22.57;92.35;100320.66;5089325;28;20056;-67
2023/07/09 01:03:50;;;;;;;6.60;3.47;;;;;;;22.53;92.16;100313.75;5069714;28;20528;-66
2023/07/09 01:06:22;;;;;;;7.85;3.15;;;;;;;22.49;92.63;100317.63;5082340;28;20036;-66
2023/07/09 01:08:53;;;;;;;6.28;3.38;;;;;;;22.48;92.83;100315.91;5091532;28;20406;-66
2023/07/09 01:11:21;;;;;;;7.18;3.63;;;;;;;22.45;92.83;100313.44;5091320;28;20082;-66
2023/07/09 01:13:50;;;;;;;6.95;3.65;;;;;;;22.35;92.85;100312.41;5091319;28;20027;-67
2023/07/09 01:16:17;;;;;;;9.07;4.05;;;;;;;22.33;93.25;100310.78;5089863;28;20482;-67
2023/07/09 01:18:43;;;;;;;6.32;3.47;;;;;;;22.35;93.44;100314.25;5090970;28;20483;-66
2023/07/09 01:21:15;;;;;;;7.53;3.72;;;;;;;22.34;93.66;100310.66;5091126;28;20050;-66
2023/07/09 01:23:44;;;;;;;6.80;3.58;;;;;;;22.33;93.91;100308.09;5090232;28;20135;-67
2023/07/09 01:26:15;;;;;;;6.82;3.90;;;;;;;22.33;93.91;100310.78;5091035;28;20454;-67
2023/07/09 01:28:43;;;;;;;7.05;3.60;;;;;;;22.30;93.95;100311.91;5089711;28;20031;-66
2023/07/09 01:31:09;;;;;;;8.23;3.50;;;;;;;22.29;94.15;100306.59;5089822;28;20027;-66
2023/07/09 01:33:35;;;;;;;8.52;4.20;;;;;;;22.25;94.63;100314.09;5089933;28;20051;-65
2023/07/09 01:36:00;;;;;;;8.77;3.80;;;;;;;22.25;95.06;100303.25;5087716;28;20024;-65
2023/07/09 01:38:30;;;;;;;8.82;4.05;;;;;;;22.23;95.20;100296.22;5089547;28;20038;-65
2023/07/09 01:40:57;;;;;;;9.10;3.53;;;;;;;22.18;95.32;100301.97;5068959;28;20032;-65
2023/07/09 01:43:24;;;;;;;6.15;3.47;;;;;;;22.15;95.42;100313.94;5087034;28;20058;-65
2023/07/09 01:45:51;;;;;;;8.77;4.60;;;;;;;22.12;95.43;100313.28;5074526;28;20028;-65
2023/07/09 01:48:17;;;;;;;7.32;3.42;;;;;;;22.07;95.46;100320.91;5069140;28;20031;-65
2023/07/09 01:50:44;;;;;;;7.60;3.47;;;;;;;21.98;95.69;100321.56;5080636;28;20024;-65
2023/07/09 01:53:14;;;;;;;8.00;3.88;;;;;;;21.89;96.24;100314.16;5089307;28;20085;-65
2023/07/09 01:55:40;;;;;;;7.93;3.72;;;;;;;21.86;96.86;100311.69;5087684;28;20460;-65
2023/07/09 01:58:06;;;;;;;9.23;3.67;;;;;;;21.83;96.91;100315.47;5088233;28;20014;-65
2023/07/09 02:00:37;;;;;;;10.48;3.88;;;;;;;21.83;97.13;100322.72;5089733;28;20036;-65
2023/07/09 02:03:04;;;;;;;6.28;3.85;;;;;;;21.83;97.65;100322.72;5088128;28;20052;-65
2023/07/09 02:05:32;;;;;;;7.22;3.67;;;;;;;21.79;97.77;100321.22;5089694;28;20024;-64
2023/07/09 02:07:58;;;;;;;7.18;4.65;;;;;;;21.72;98.04;100330.72;5089437;28;20038;-65
2023/07/09 02:10:23;;;;;;;7.18;4.30;;;;;;;21.68;98.35;100330.09;5088961;28;20040;-65
2023/07/09 02:12:49;;;;;;;10.50;4.47;;;;;;;21.71;98.31;100339.84;5089126;28;20094;-65
2023/07/09 02:15:15;;;;;;;7.13;4.22;;;;;;;21.70;98.97;100327.25;5086234;28;20020;-65
2023/07/09 02:17:41;;;;;;;7.82;4.05;;;;;;;21.70;98.88;100333.56;5088564;28;20058;-65
2023/07/09 02:20:09;;;;;;;8.73;5.00;;;;;;;21.70;99.21;100333.56;5090123;28;20099;-65
2023/07/09 02:22:36;;;;;;;8.75;3.92;;;;;;;21.69;99.21;100331.84;5089311;28;20035;-65
2023/07/09 02:25:02;;;;;;;8.40;4.20;;;;;;;21.66;99.44;100325.78;5088993;28;20032;-65
2023/07/09 02:27:28;;;;;;;6.45;3.47;;;;;;;21.64;99.42;100328.59;5081046;28;20032;-65
2023/07/09 02:29:54;;;;;;;7.03;3.65;;;;;;;21.62;99.27;100330.53;5068820;28;20533;-66
2023/07/09 02:32:25;;;;;;;6.85;3.58;;;;;;;21.59;99.44;100328.06;5076126;28;20098;-65
2023/07/09 02:34:52;;;;;;;7.50;3.65;;;;;;;21.53;99.54;100324.94;5088586;28;20035;-65
2023/07/09 02:37:20;;;;;;;8.70;4.55;;;;;;;21.54;99.69;100327.53;5087135;28;20020;-64
2023/07/09 02:39:46;;;;;;;8.93;4.60;;;;;;;21.51;99.73;100337.72;5086768;28;20043;-65
2023/07/09 02:42:17;;;;;;;9.07;4.60;;;;;;;21.51;99.62;100340.41;5069071;28;20024;-65
2023/07/09 02:44:43;;;;;;;6.65;3.80;;;;;;;21.49;99.86;100340.53;5087638;28;20035;-65
2023/07/09 02:47:10;;;;;;;5.13;4.28;;;;;;;21.48;100.00;100343.34;5071363;28;20021;-65
2023/07/09 02:49:37;;;;;;;13.35;3.55;;;;;;;21.41;100.00;100348.34;5080953;28;20519;-65
2023/07/09 02:52:03;;;;;;;8.23;4.15;;;;;;;21.41;99.64;100350.19;5088502;28;20039;-65
2023/07/09 02:54:28;;;;;;;10.77;5.47;;;;;;;21.38;100.00;100347.69;5089161;28;20522;-65
2023/07/09 02:56:54;;;;;;;8.20;3.70;;;;;;;21.39;100.00;100350.28;5089051;28;20048;-65
2023/07/09 02:59:19;;;;;;;6.55;3.60;;;;;;;21.40;99.79;100351.16;5087919;28;20028;-65
2023/07/09 03:01:47;;;;;;;8.38;4.70;;;;;;;21.42;99.73;100351.91;5088153;28;20411;-65
2023/07/09 03:04:13;;;;;;;6.03;3.85;;;;;;;21.41;100.00;100355.59;5088410;28;20034;-65
2023/07/09 03:06:40;;;;;;;8.95;4.00;;;;;;;21.39;100.00;100349.41;5087549;28;20024;-65
2023/07/09 03:09:06;;;;;;;10.52;3.92;;;;;;;21.34;100.00;100352.47;5088443;28;20084;-65
2023/07/09 03:11:33;;;;;;;7.93;3.75;;;;;;;21.32;100.00;100354.41;5088656;28;20040;-65
2023/07/09 03:14:00;;;;;;;13.57;3.80;;;;;;;21.28;100.00;100354.72;5088927;28;20093;-64
2023/07/09 03:16:30;;;;;;;8.43;4.15;;;;;;;21.28;100.00;100354.72;5092040;28;20142;-64
2023/07/09 03:18:56;;;;;;;9.45;3.83;;;;;;;21.22;100.00;100352.47;5074317;28;20039;-64
2023/07/09 03:21:22;;;;;;;8.25;3.97;;;;;;;21.18;100.00;100356.34;5092290;28;20024;-64
2023/07/09 03:23:47;;;;;;;14.63;4.72;;;;;;;21.17;100.00;100357.34;5092537;28;20115;-64
2023/07/09 03:26:13;;;;;;;9.57;4.10;;;;;;;21.16;100.00;100352.88;5061301;28;20056;-65
2023/07/09 03:28:38;;;;;;;9.93;3.85;;;;;;;21.10;100.00;100347.91;5090235;28;20464;-64
2023/07/09 03:31:04;;;;;;;9.32;3.70;;;;;;;21.11;100.00;100355.06;5091065;28;20046;-64
2023/07/09 03:33:29;;;;;;;6.55;3.88;;;;;;;21.10;100.00;100358.75;5092122;28;20024;-64
2023/07/09 03:35:55;;;;;;;6.65;3.58;;;;;;;21.12;100.00;100356.81;5090229;28;20516;-64
2023/07/09 03:38:20;;;;;;;9.52;4.03;;;;;;;21.15;100.00;100354.75;5089067;28;20115;-64
2023/07/09 03:40:50;;;;;;;7.93;4.07;;;;;;;21.20;100.00;100359.81;5089924;28;20032;-64
2023/07/09 03:43:15;;;;;;;6.32;3.45;;;;;;;21.18;100.00;100368.06;5089344;28;20111;-64
2023/07/09 03:45:41;;;;;;;6.78;3.70;;;;;;;21.15;100.00;100372.81;5087817;28;20035;-64
2023/07/09 03:48:07;;;;;;;6.22;3.38;;;;;;;20.98;99.78;100375.81;5089897;28;20024;-64
2023/07/09 03:50:32;;;;;;;11.10;3.95;;;;;;;20.92;99.86;100383.34;5090495;28;20476;-64
2023/07/09 03:52:58;;;;;;;7.97;4.07;;;;;;;20.91;99.95;100381.63;5091261;28;20035;-64
2023/07/09 03:55:26;;;;;;;6.45;3.75;;;;;;;20.89;100.00;100378.16;5091219;28;20097;-64
2023/07/09 03:57:55;;;;;;;6.45;3.47;;;;;;;20.86;100.00;100383.78;5091143;28;20069;-64
2023/07/09 04:00:20;;;;;;;7.65;3.92;;;;;;;20.92;100.00;100387.91;5091191;28;20024;-64
2023/07/09 04:02:46;;;;;;;10.60;4.78;;;;;;;20.97;100.00;100398.41;5092254;28;20058;-64
2023/07/09 04:05:12;;;;;;;8.68;4.93;;;;;;;20.97;100.00;100393.00;5090935;28;20039;-64
2023/07/09 04:07:37;;;;;;;6.93;4.22;;;;;;;21.07;100.00;100403.09;5091825;28;20020;-64
2023/07/09 04:10:04;;;;;;;9.68;3.72;;;;;;;21.11;100.00;100396.50;5092207;28;20202;-64
2023/07/09 04:12:30;;;;;;;8.48;3.72;;;;;;;21.13;100.00;100396.41;5085886;28;20030;-64
2023/07/09 04:14:55;;;;;;;9.60;4.53;;;;;;;21.17;100.00;100404.19;5091914;28;20023;-64
2023/07/09 04:17:22;;;;;;;8.13;3.65;;;;;;;21.20;100.00;100403.13;5090749;28;20475;-64
2023/07/09 04:19:48;;;;;;;7.25;4.50;;;;;;;21.20;100.00;100403.13;5089499;28;20028;-64
2023/07/09 04:22:13;;;;;;;7.60;4.72;;;;;;;21.16;100.00;100407.00;5090557;28;20105;-64
2023/07/09 04:24:39;;;;;;;7.50;4.38;;;;;;;21.13;100.00;100412.63;5090019;28;20032;-64
2023/07/09 04:27:04;;;;;;;8.48;4.40;;;;;;;21.09;100.00;100408.41;5088209;28;20028;-65
2023/07/09 04:29:30;;;;;;;7.65;3.95;;;;;;;21.00;99.99;100412.63;5090045;28;20034;-64
2023/07/09 04:31:56;;;;;;;7.93;4.40;;;;;;;21.01;100.00;100413.47;5089369;28;20460;-65
2023/07/09 04:34:21;;;;;;;10.30;4.75;;;;;;;21.07;100.00;100413.06;5088423;28;20065;-64
2023/07/09 04:36:47;;;;;;;6.80;3.70;;;;;;;21.13;100.00;100415.34;5075818;28;20015;-64
2023/07/09 04:39:12;;;;;;;7.85;3.92;;;;;;;21.20;100.00;100422.06;5078049;28;20132;-64
2023/07/09 04:41:38;;;;;;;9.85;4.15;;;;;;;21.28;100.00;100408.84;5082007;28;20030;-64
2023/07/09 04:44:03;;;;;;;10.85;4.15;;;;;;;21.36;100.00;100409.19;5069439;28;20030;-64
2023/07/09 04:46:29;;;;;;;8.57;4.07;;;;;;;21.43;100.00;100416.75;5076606;28;20087;-64
2023/07/09 04:48:55;;;;;;;7.80;4.32;;;;;;;21.55;100.00;100409.59;5090414;28;20784;-64
2023/07/09 04:51:21;;;;;;;10.27;4.95;;;;;;;21.67;100.00;100419.56;5089986;28;20034;-64
2023/07/09 04:53:46;;;;;;;8.23;4.50;;;;;;;21.82;98.98;100407.66;5091229;28;20027;-64
2023/07/09 04:56:12;;;;;;;8.45;4.10;;;;;;;21.92;98.48;100417.72;5090797;28;20024;-64
2023/07/09 04:58:38;;;;;;;8.90;4.10;;;;;;;22.06;97.90;100422.13;5091270;28;20103;-64
2023/07/09 05:01:03;;;;;;;7.07;4.00;;;;;;;22.16;97.35;100412.34;5089545;28;20507;-64
2023/07/09 05:03:29;;;;;;;8.02;5.13;;;;;;;22.28;96.84;100406.00;5089920;28;20130;-64
2023/07/09 05:05:54;;;;;;;7.97;3.80;;;;;;;22.40;96.46;100410.53;5089663;28;20054;-64
2023/07/09 05:08:20;;;;;;;9.73;4.60;;;;;;;22.53;96.08;100411.38;5089060;28;20430;-64
2023/07/09 05:10:50;;;;;;;9.32;5.22;;;;;;;22.63;95.53;100412.41;5089731;28;20031;-64
2023/07/09 05:13:16;;;;;;;10.02;5.00;;;;;;;22.78;95.33;100405.81;5089143;28;20126;-64
2023/07/09 05:15:45;;;;;;;10.38;4.55;;;;;;;22.97;95.17;100414.25;5088249;28;20031;-64
2023/07/09 05:18:14;;;;;;;8.93;4.65;;;;;;;23.12;93.60;100412.19;5089966;28;20024;-64
2023/07/09 05:20:40;;;;;;;10.35;5.05;;;;;;;23.34;93.25;100405.00;5071357;28;20024;-64
2023/07/09 05:23:07;;;;;;;14.35;4.85;;;;;;;23.67;92.03;100406.03;5087990;28;20028;-64
2023/07/09 05:25:33;;;;;;;12.63;4.22;;;;;;;23.85;90.10;100407.25;5083316;28;20218;-64
2023/07/09 05:27:58;;;;;;;7.20;4.20;;;;;;;23.94;89.33;100414.66;5067980;28;20137;-64
2023/07/09 05:30:24;;;;;;;9.27;4.55;;;;;;;23.95;88.34;100410.97;5067819;28;20043;-64
2023/07/09 05:32:49;;;;;;;9.93;4.18;;;;;;;24.05;88.14;100412.81;5067052;28;20039;-64
2023/07/09 05:35:15;;;;;;;9.73;4.68;;;;;;;24.15;88.88;100407.53;5081941;28;20035;-65
2023/07/09 05:37:40;;;;;;;8.52;5.00;;;;;;;24.14;87.92;100406.66;5088434;28;20020;-62
2023/07/09 05:40:07;;;;;;;6.38;3.97;;;;;;;24.11;87.21;100404.19;5087601;28;20178;-63
2023/07/09 05:42:33;;;;;;;8.45;4.75;;;;;;;24.21;86.82;100404.28;5090079;28;20112;-63
2023/07/09 05:44:58;;;;;;;9.15;4.75;;;;;;;24.30;86.93;100406.25;5069911;28;20495;-63
2023/07/09 05:47:25;;;;;;;10.80;5.53;;;;;;;24.36;85.70;100405.75;5069916;28;20085;-63
2023/07/09 05:49:50;;;;;;;8.40;4.30;;;;;;;24.51;84.41;100415.34;5089858;28;20159;-63
2023/07/09 05:52:22;;;;;;;9.40;4.32;;;;;;;24.61;82.17;100417.16;5089869;28;20034;-63
2023/07/09 05:54:51;;;;;;;7.90;4.03;;;;;;;24.74;81.48;100416.16;5089869;28;20076;-63
2023/07/09 05:57:17;;;;;;;6.97;3.83;;;;;;;24.85;80.43;100419.69;5089345;28;20035;-63
2023/07/09 05:59:43;;;;;;;14.43;6.25;;;;;;;24.99;79.84;100421.25;5090332;28;20054;-63
2023/07/09 06:02:18;;;;;;;7.82;4.10;;;;;;;25.11;79.17;100426.50;5090223;28;20048;-63
2023/07/09 06:04:44;;;;;;;10.68;5.15;;;;;;;25.24;78.75;100427.16;5089665;28;20422;-64
2023/07/09 06:07:09;;;;;;;5.97;3.42;;;;;;;25.37;78.17;100427.00;5089655;28;20073;-63
2023/07/09 06:09:36;;;;;;;6.50;3.90;;;;;;;25.48;77.07;100419.63;5089749;28;20028;-63
2023/07/09 06:12:03;;;;;;;7.93;3.83;;;;;;;25.61;75.90;100422.13;5089385;28;20034;-63
2023/07/09 06:14:28;;;;;;;6.65;3.85;;;;;;;25.73;74.51;100426.50;5087945;28;20054;-63
2023/07/09 06:16:53;;;;;;;11.55;3.83;;;;;;;25.87;73.72;100420.69;5072552;28;20400;-63
2023/07/09 06:19:19;;;;;;;7.22;3.70;;;;;;;25.98;72.73;100422.44;5067539;28;20056;-63
2023/07/09 06:21:44;;;;;;;7.10;3.70;;;;;;;26.10;72.36;100421.34;5070078;28;20480;-64
2023/07/09 06:24:10;;;;;;;7.30;3.63;;;;;;;26.18;70.73;100414.22;5083323;28;20537;-63
2023/07/09 06:26:35;;;;;;;7.60;4.10;;;;;;;26.27;68.30;100413.41;5087064;28;20028;-63
2023/07/09 06:29:01;;;;;;;7.07;3.78;;;;;;;26.48;68.95;100416.88;5087618;28;20511;-64
2023/07/09 06:31:26;;;;;;;6.07;3.35;;;;;;;26.65;68.76;100413.50;5075936;28;20029;-64
2023/07/09 06:33:52;;;;;;;6.65;3.40;;;;;;;26.77;67.40;100416.97;5078954;28;20211;-63
2023/07/09 06:36:19;;;;;;;8.60;3.63;;;;;;;26.84;66.09;100418.97;5088054;28;20089;-63
2023/07/09 06:38:45;;;;;;;5.85;3.33;;;;;;;26.98;65.43;100414.94;5088468;28;20032;-64
2023/07/09 06:41:11;;;;;;;5.82;3.17;;;;;;;27.08;65.79;100415.81;5088459;28;20035;-63
2023/07/09 06:43:39;;;;;;;5.82;3.30;;;;;;;27.14;64.13;100424.28;5089549;28;20047;-63
2023/07/09 06:46:09;;;;;;;9.73;3.40;;;;;;;27.28;62.79;100416.69;5084354;28;20023;-63
2023/07/09 06:48:34;;;;;;;6.20;3.40;;;;;;;27.42;62.56;100417.06;5088775;28;20032;-64
2023/07/09 06:51:00;;;;;;;7.78;3.50;;;;;;;27.61;62.86;100413.44;5075177;28;20590;-64
2023/07/09 06:53:27;;;;;;;6.40;2.97;;;;;;;27.68;61.73;100415.41;5087710;28;20032;-64
2023/07/09 06:55:55;;;;;;;5.72;3.20;;;;;;;27.78;64.37;100418.09;5088493;28;20028;-64
2023/07/09 06:58:22;;;;;;;9.45;3.78;;;;;;;28.04;63.59;100416.47;5089032;28;20106;-64
2023/07/09 07:00:50;;;;;;;6.75;3.13;;;;;;;28.27;63.96;100415.91;5088022;28;20020;-64
2023/07/09 07:03:16;;;;;;;8.02;3.15;;;;;;;28.35;64.03;100420.63;5088832;28;20125;-64
2023/07/09 07:05:46;;;;;;;5.95;3.17;;;;;;;28.52;62.17;100413.50;5070811;28;20028;-64
2023/07/09 07:08:15;;;;;;;6.25;3.33;;;;;;;28.59;63.80;100411.84;5087271;28;20396;-64
2023/07/09 07:10:40;;;;;;;5.80;3.38;;;;;;;28.81;61.30;100416.88;5088288;28;20035;-64
2023/07/09 07:13:06;;;;;;;6.35;3.30;;;;;;;28.85;62.29;100413.66;5087750;28;20490;-64
2023/07/09 07:15:31;;;;;;;7.68;3.28;;;;;;;29.10;61.59;100418.38;5086669;28;20032;-64
2023/07/09 07:17:57;;;;;;;6.13;2.85;;;;;;;29.24;59.22;100403.25;5087063;28;20415;-64
2023/07/09 07:20:22;;;;;;;6.70;3.33;;;;;;;29.40;58.58;100398.78;5085838;28;20024;-64
2023/07/09 07:22:48;;;;;;;5.90;3.25;;;;;;;29.68;57.67;100402.22;5086585;28;20030;-64
2023/07/09 07:25:14;;;;;;;5.88;3.10;;;;;;;29.99;55.58;100406.16;5087033;28;20063;-64
2023/07/09 07:27:39;;;;;;;8.23;3.45;;;;;;;30.41;55.14;100409.78;5087663;28;20076;-64
2023/07/09 07:30:08;;;;;;;6.07;2.83;;;;;;;30.73;54.10;100404.41;5088758;28;20028;-64
2023/07/09 07:32:42;;;;;;;6.60;3.00;;;;;;;30.78;52.58;100404.78;5087830;28;20111;-64
2023/07/09 07:35:07;;;;;;;7.70;3.67;;;;;;;30.75;54.28;100401.47;5075541;28;20024;-64
2023/07/09 07:37:33;;;;;;;7.35;3.17;;;;;;;31.17;54.83;100404.13;5088676;28;20464;-64
2023/07/09 07:39:58;;;;;;;4.47;2.80;;;;;;;31.47;50.65;100398.81;5087341;28;20051;-64
2023/07/09 07:42:24;;;;;;;5.78;2.80;;;;;;;31.80;49.40;100396.84;5081536;28;20040;-64
2023/07/09 07:44:49;;;;;;;6.20;3.42;;;;;;;32.20;49.19;100395.88;5087868;28;20032;-64
2023/07/09 07:47:15;;;;;;;6.93;3.08;;;;;;;32.55;49.19;100399.00;5088590;28;20020;-64
2023/07/09 07:49:40;;;;;;;5.40;3.17;;;;;;;32.74;47.11;100392.16;5087915;28;20027;-64
2023/07/09 07:52:07;;;;;;;5.72;2.80;;;;;;;32.93;47.26;100400.81;5086679;28;20035;-64
2023/07/09 07:54:32;;;;;;;5.88;3.00;;;;;;;33.25;46.67;100405.22;5087079;28;20376;-64
2023/07/09 07:56:58;;;;;;;7.53;2.95;;;;;;;33.65;45.98;100401.25;5087106;28;20027;-64
2023/07/09 07:59:24;;;;;;;7.22;2.75;;;;;;;34.06;45.81;100397.88;5087783;28;20040;-64
2023/07/09 08:01:49;;;;;;;5.22;2.67;;;;;;;34.20;43.71;100398.94;5089083;28;20114;-64
2023/07/09 08:04:15;;;;;;;5.22;2.67;;;;;;;34.04;44.04;100405.50;5089890;28;20035;-64
2023/07/09 08:06:41;;;;;;;4.68;2.88;;;;;;;34.25;43.55;100407.50;5081705;28;20092;-64
2023/07/09 08:09:06;;;;;;;8.40;3.05;;;;;;;34.47;43.40;100401.84;5090538;28;20031;-64
2023/07/09 08:11:32;;;;;;;6.18;2.83;;;;;;;34.73;43.17;100401.28;5089967;28;20031;-64
2023/07/09 08:13:58;;;;;;;6.53;3.15;;;;;;;34.92;42.53;100406.25;5082806;28;20032;-64
2023/07/09 08:16:23;;;;;;;4.90;2.80;;;;;;;35.17;42.03;100407.56;5068165;28;20087;-65
2023/07/09 08:18:51;;;;;;;7.05;3.00;;;;;;;35.27;41.50;100398.91;5086828;28;20020;-65
2023/07/09 08:21:17;;;;;;;5.85;2.65;;;;;;;35.51;41.68;100393.84;5088703;28;20115;-65
2023/07/09 08:23:42;;;;;;;9.25;3.45;;;;;;;35.50;41.62;100397.66;5088713;28;20127;-65
2023/07/09 08:26:08;;;;;;;6.80;3.00;;;;;;;35.59;40.04;100395.59;5088365;28;20032;-65
2023/07/09 08:28:35;;;;;;;6.00;3.10;;;;;;;35.82;41.31;100390.63;5073153;28;20807;-65
2023/07/09 08:31:00;;;;;;;6.30;2.97;;;;;;;35.85;39.85;100387.50;5090962;28;20028;-65
2023/07/09 08:33:26;;;;;;;5.93;2.88;;;;;;;36.06;40.18;100395.75;5090987;28;20521;-65
2023/07/09 08:35:53;;;;;;;5.22;2.67;;;;;;;36.41;40.45;100388.28;5090043;28;20024;-65
2023/07/09 08:38:19;;;;;;;5.47;3.15;;;;;;;36.38;38.36;100389.53;5089963;28;20368;-65
2023/07/09 08:41:25;;;;;;;4.57;2.50;;;;;;;36.34;38.91;100390.16;5090572;28;20051;-65
2023/07/09 08:44:24;;;;;;;6.57;2.70;;;;;;;36.24;38.59;100392.41;5087639;28;20087;-65
2023/07/09 08:47:12;;;;;;;4.97;2.70;;;;;;;36.39;38.43;100390.38;5088800;28;20043;-65
2023/07/09 08:49:40;;;;;;;5.18;2.78;;;;;;;36.92;38.99;100393.13;5090524;28;20024;-65
2023/07/09 08:52:31;;;;;;;5.85;2.92;;;;;;;37.24;36.33;100402.59;5089721;28;20483;-65
2023/07/09 08:55:01;;;;;;;6.20;3.00;;;;;;;37.20;37.21;100401.28;5085684;28;20096;-65
2023/07/09 08:57:31;;;;;;;5.68;2.85;;;;;;;37.18;37.92;100394.25;5089676;28;20024;-66
2023/07/09 09:00:07;;;;;;;5.13;2.63;;;;;;;37.02;37.49;100402.97;5089666;28;20153;-66
2023/07/09 09:02:44;;;;;;;5.90;3.67;;;;;;;37.21;37.87;100397.44;5089066;28;20139;-66
2023/07/09 09:05:19;;;;;;;10.45;3.00;;;;;;;37.40;36.63;100395.78;5069040;28;20024;-65
2023/07/09 09:07:51;;;;;;;5.22;2.45;;;;;;;37.37;37.72;100396.19;5083271;28;20440;-66
2023/07/09 09:10:39;;;;;;;6.93;2.33;;;;;;;37.54;36.45;100403.03;5086189;28;20394;-66
2023/07/09 09:13:11;;;;;;;5.50;2.97;;;;;;;37.60;36.72;100397.47;5087733;28;20020;-66
2023/07/09 09:15:40;;;;;;;4.57;2.67;;;;;;;37.72;36.72;100395.78;5088102;28;20460;-65
2023/07/09 09:18:18;;;;;;;5.75;2.50;;;;;;;37.44;36.39;100386.81;5087385;28;20614;-66
2023/07/09 09:20:52;;;;;;;7.05;3.30;;;;;;;37.49;36.72;100384.25;5083651;28;20400;-66
2023/07/09 09:23:18;;;;;;;4.25;2.35;;;;;;;37.72;37.13;100381.91;5073126;28;20110;-66
2023/07/09 09:25:53;;;;;;;6.80;2.45;;;;;;;37.89;37.48;100377.56;5079708;28;20071;-66
2023/07/09 09:28:19;;;;;;;6.10;2.33;;;;;;;37.76;35.70;100369.28;5082889;28;20428;-66
2023/07/09 09:30:44;;;;;;;6.22;2.70;;;;;;;38.30;35.38;100365.31;5089769;28;20077;-66
2023/07/09 09:33:14;;;;;;;7.38;3.10;;;;;;;38.17;36.43;100353.16;5087737;28;20157;-66
2023/07/09 09:35:43;;;;;;;5.22;2.85;;;;;;;38.31;35.90;100350.31;5073538;28;20115;-66
2023/07/09 09:38:19;;;;;;;4.75;2.40;;;;;;;38.30;35.09;100348.63;5069290;28;20173;-66
2023/07/09 09:40:45;;;;;;;7.03;3.17;;;;;;;38.59;35.18;100345.28;5077464;28;20044;-66
2023/07/09 09:43:20;;;;;;;5.95;2.45;;;;;;;38.98;34.44;100342.28;5089162;28;20028;-66
2023/07/09 09:45:48;;;;;;;6.78;2.63;;;;;;;39.21;34.50;100342.53;5082119;28;20120;-66
2023/07/09 09:48:19;;;;;;;4.20;2.30;;;;;;;39.30;32.96;100341.16;5085460;28;20039;-66
2023/07/09 09:50:46;;;;;;;8.50;3.42;;;;;;;39.64;34.11;100343.44;5069313;28;20086;-66
2023/07/09 09:53:24;;;;;;;5.22;2.80;;;;;;;39.81;33.61;100338.09;5069026;28;20028;-66
2023/07/09 09:55:53;;;;;;;4.47;2.75;;;;;;;39.80;32.56;100337.28;5076281;28;20043;-66
2023/07/09 09:58:19;;;;;;;4.72;2.38;;;;;;;39.87;33.25;100343.63;5068619;28;20028;-66
2023/07/09 10:00:51;;;;;;;5.07;2.45;;;;;;;39.87;32.34;100346.44;5074385;28;20039;-66
2023/07/09 10:03:18;;;;;;;4.72;2.38;;;;;;;39.93;32.75;100344.66;5067489;28;20098;-66
2023/07/09 10:05:51;;;;;;;4.32;2.35;;;;;;;40.01;32.16;100339.63;5066678;28;20044;-66
2023/07/09 10:08:45;;;;;;;4.82;2.33;;;;;;;39.90;31.92;100334.84;5066609;28;20367;-66
2023/07/09 10:11:19;;;;;;;4.88;2.30;;;;;;;40.13;33.29;100343.34;5083538;28;20102;-66
2023/07/09 10:13:45;;;;;;;5.45;2.45;;;;;;;39.88;33.19;100339.78;5066791;28;20117;-66
2023/07/09 10:16:21;;;;;;;5.88;2.80;;;;;;;39.88;32.09;100334.22;5083631;28;20035;-66
2023/07/09 10:18:55;;;;;;;5.22;2.88;;;;;;;40.24;32.43;100328.63;5087966;28;20024;-66
2023/07/09 10:21:37;;;;;;;8.93;3.03;;;;;;;40.53;33.12;100325.03;5083968;28;20042;-66
2023/07/09 10:24:11;;;;;;;5.93;2.80;;;;;;;40.55;32.26;100331.22;5077691;28;20127;-66
2023/07/09 10:26:46;;;;;;;5.97;2.80;;;;;;;41.03;32.61;100327.50;5088494;28;20136;-66
2023/07/09 10:29:27;;;;;;;4.57;2.85;;;;;;;41.36;32.39;100327.84;5086389;28;20023;-66
2023/07/09 10:32:03;;;;;;;8.02;3.00;;;;;;;40.87;30.88;100328.22;5074050;28;20114;-66
2023/07/09 10:34:45;;;;;;;6.38;2.60;;;;;;;40.76;31.54;100324.28;5068339;28;20512;-65
2023/07/09 10:37:34;;;;;;;4.45;2.28;;;;;;;41.07;29.89;100323.16;5084755;28;20499;-65
2023/07/09 10:40:03;;;;;;;5.82;2.53;;;;;;;41.22;29.64;100316.03;5086271;28;20042;-65
2023/07/09 10:42:45;;;;;;;6.72;2.08;;;;;;;41.47;30.03;100325.03;5075357;28;20024;-65
2023/07/09 10:45:20;;;;;;;5.00;2.40;;;;;;;41.56;28.48;100314.41;5076390;28;20107;-65
2023/07/09 10:47:58;;;;;;;3.78;2.08;;;;;;;41.59;28.70;100313.91;5086281;28;20036;-65
2023/07/09 10:50:35;;;;;;;4.68;2.90;;;;;;;41.55;30.03;100319.13;5069662;28;20051;-65
2023/07/09 10:53:08;;;;;;;6.43;2.47;;;;;;;41.86;29.55;100323.50;5068618;28;20027;-66
2023/07/09 10:55:50;;;;;;;7.05;2.25;;;;;;;41.55;28.83;100313.53;5071379;28;20028;-65
2023/07/09 10:58:47;;;;;;;5.03;2.03;;;;;;;41.60;28.70;100307.25;5072023;28;20032;-66
2023/07/09 11:01:17;;;;;;;4.93;2.85;;;;;;;41.64;29.73;100314.03;5072034;28;20271;-65
2023/07/09 11:03:52;;;;;;;4.95;2.20;;;;;;;41.75;29.31;100310.34;5075127;28;20163;-65
2023/07/09 11:06:22;;;;;;;4.97;2.40;;;;;;;42.01;29.48;100301.50;5064698;28;20036;-65
2023/07/09 11:08:51;;;;;;;5.18;2.20;;;;;;;42.30;29.22;100300.41;5067367;28;20456;-65
2023/07/09 11:11:29;;;;;;;4.72;2.08;;;;;;;42.46;28.52;100293.19;5066618;28;20255;-65
2023/07/09 11:14:00;;;;;;;5.30;2.05;;;;;;;42.55;28.46;100295.38;5076339;28;20036;-65
2023/07/09 11:16:33;;;;;;;5.53;2.38;;;;;;;42.46;27.66;100294.06;5076628;28;20028;-65
2023/07/09 11:19:03;;;;;;;7.43;2.35;;;;;;;42.45;28.15;100288.72;5076850;28;20613;-65
2023/07/09 11:21:29;;;;;;;6.55;2.00;;;;;;;42.96;28.70;100289.44;5072153;28;20134;-65
2023/07/09 11:23:59;;;;;;;6.60;2.20;;;;;;;42.99;28.35;100291.72;5078580;28;20115;-65
2023/07/09 11:26:30;;;;;;;5.53;2.17;;;;;;;42.66;26.83;100286.03;5069113;28;20035;-65
2023/07/09 11:29:14;;;;;;;5.40;2.45;;;;;;;42.06;27.50;100284.81;5068538;28;20456;-65
2023/07/09 11:31:44;;;;;;;7.50;2.60;;;;;;;41.73;28.45;100279.84;5074806;28;20109;-65